EW3976 Weather Reports


time (UTC)temp
F
wind
direction
speed
knots
gust
knots
rain 1hr
in
rain 24hr
in
rain mn
in
humidity
%
barometer
mb
20220124094115 41 0.0 0.0 0.00 0.00 0.00 85 1023.7
20220124093116 42 0.0 0.0 0.00 0.00 0.00 85 1023.7
20220124092115 42 0.0 0.0 0.00 0.00 0.00 85 1023.6
20220124091115 42 0.0 0.0 0.00 0.00 0.00 85 1023.6
20220124090116 42 0.0 0.0 0.00 0.00 0.00 84 1023.7
20220124085117 42 0.0 0.0 0.00 0.00 0.00 84 1023.8
20220124084115 42 0.0 0.0 0.00 0.00 0.00 84 1023.9
20220124083117 42 0.0 0.0 0.00 0.00 0.00 83 1024.0
20220124082117 42 0.0 0.0 0.00 0.00 0.00 84 1024.1
20220124081117 43 0.0 0.0 0.00 0.00 0.00 83 1024.1
20220124080117 43 0.0 0.0 0.00 0.00 0.00 84 1024.2
20220124075120 43 0.0 0.0 0.00 0.00 0.00 84 1024.2
20220124074116 43 0.0 0.0 0.00 0.00 0.00 83 1024.2
20220124073116 43 0.0 0.0 0.00 0.00 0.00 83 1024.2
20220124072117 44 0.0 0.0 0.00 0.00 0.00 83 1024.3
20220124071117 44 0.0 0.0 0.00 0.00 0.00 82 1024.3
20220124070116 44 0.0 0.0 0.00 0.00 0.00 82 1024.4
20220124065116 45 0.0 0.0 0.00 0.00 0.00 82 1024.3
20220124064116 45 0.0 0.0 0.00 0.00 0.00 82 1024.3
20220124063118 44 0.0 0.0 0.00 0.00 0.00 81 1024.2
20220124062117 45 0.0 0.0 0.00 0.00 0.00 81 1024.2
20220124061116 45 0.0 0.0 0.00 0.00 0.00 81 1024.3
20220124060116 46 0.0 0.0 0.00 0.00 0.00 80 1024.3
20220124055116 46 0.0 0.0 0.00 0.00 0.00 80 1024.4
20220124054116 46 0.0 0.0 0.00 0.00 0.00 78 1024.3
20220124053116 47 0.0 0.0 0.00 0.00 0.00 77 1024.3
20220124052116 47 0.0 0.0 0.00 0.00 0.00 77 1024.4
20220124051116 48 0.0 0.0 0.00 0.00 0.00 76 1024.4
20220124050116 48 0.0 0.0 0.00 0.00 0.00 76 1024.3
20220124045116 48 0.0 0.0 0.00 0.00 0.00 76 1024.3
20220124044116 48 0.0 0.0 0.00 0.00 0.00 76 1024.1
20220124043116 49 0.0 0.0 0.00 0.00 0.00 75 1024.1
20220124042117 49 0.0 0.0 0.00 0.00 0.00 74 1024.0
20220124041116 50 0.0 0.0 0.00 0.00 0.00 74 1024.1
20220124040116 51 0.0 0.0 0.00 0.00 0.00 72 1024.0
20220124035117 51 0.0 0.9 0.00 0.00 0.00 71 1024.0
20220124034116 51 0.0 0.0 0.00 0.00 0.00 70 1023.9
20220124033116 52 203 0.9 0.9 0.00 0.00 0.00 69 1024.0
20220124032116 53 0.0 0.9 0.00 0.00 0.00 67 1024.0
20220124031116 54 0.0 0.0 0.00 0.00 0.00 66 1024.0
20220124030116 54 0.0 0.0 0.00 0.00 0.00 66 1024.0
20220124025116 54 225 0.9 1.7 0.00 0.00 0.00 65 1024.0
20220124024119 55 0.0 0.9 0.00 0.00 0.00 64 1024.0
20220124023116 56 0.0 0.0 0.00 0.00 0.00 62 1023.9
20220124022116 56 225 0.9 1.7 0.00 0.00 0.00 61 1023.8
20220124021116 57 248 0.9 0.9 0.00 0.00 0.00 57 1023.7
20220124020116 58 248 0.9 0.9 0.00 0.00 0.00 52 1023.7
20220124015121 59 0.0 0.9 0.00 0.00 0.00 48 1023.6
20220124014116 61 0.0 0.9 0.00 0.00 0.00 44 1023.6
20220124013116 61 0.0 0.9 0.00 0.00 0.00 44 1023.5
20220124012117 62 0.0 0.9 0.00 0.00 0.00 43 1023.5
20220124011116 63 315 1.7 2.6 0.00 0.00 0.00 42 1023.5
20220124010116 63 338 0.9 1.7 0.00 0.00 0.00 44 1023.6
20220124005116 64 315 1.7 2.6 0.00 0.00 0.00 43 1023.6
20220124004116 64 338 3.5 5.2 0.00 0.00 0.00 43 1023.5
20220124003116 64 338 2.6 3.5 0.00 0.00 0.00 42 1023.5
20220124002117 64 0 5.2 6.1 0.00 0.00 0.00 41 1023.5
20220124001117 65 315 3.5 4.3 0.00 0.00 0.00 39 1023.5
20220124000116 65 0.0 1.7 0.00 0.00 0.00 40 1023.4
20220123235116 65 338 2.6 4.3 0.00 0.00 0.00 40 1023.5
20220123234117 65 293 0.9 1.7 0.00 0.00 0.00 40 1023.5
20220123233116 65 338 3.5 5.2 0.00 0.00 0.00 40 1023.7
20220123232117 65 23 3.5 4.3 0.00 0.00 0.00 40 1023.7
20220123231119 65 0.0 0.9 0.00 0.00 0.00 40 1023.7
20220123230116 64 338 1.7 2.6 0.00 0.00 0.00 41 1023.6
20220123225116 64 293 1.7 2.6 0.00 0.00 0.00 41 1023.7
20220123224117 64 293 0.9 0.9 0.00 0.00 0.00 42 1023.7
20220123223116 64 0.0 1.7 0.00 0.00 0.00 42 1023.7
20220123222116 63 0 3.5 5.2 0.00 0.00 0.00 42 1023.8
20220123221116 63 293 3.5 3.5 0.00 0.00 0.00 43 1023.9
20220123220116 63 23 0.9 4.3 0.00 0.00 0.00 42 1023.8
20220123215116 63 0 2.6 3.5 0.00 0.00 0.00 44 1023.9
20220123214116 63 293 1.7 1.7 0.00 0.00 0.00 44 1024.0
20220123213116 62 338 1.7 3.5 0.00 0.00 0.00 45 1024.1
20220123212116 61 293 3.5 4.3 0.00 0.00 0.00 45 1024.2
20220123211116 61 315 1.7 2.6 0.00 0.00 0.00 48 1024.3
20220123210116 60 315 0.9 1.7 0.00 0.00 0.00 48 1024.5
20220123205115 60 315 2.6 3.5 0.00 0.00 0.00 48 1024.8
20220123204116 60 293 4.3 5.2 0.00 0.00 0.00 49 1024.9
20220123203116 60 338 3.5 5.2 0.00 0.00 0.00 49 1025.1
20220123202116 60 315 4.3 6.1 0.00 0.00 0.00 47 1025.3
20220123201116 59 338 3.5 5.2 0.00 0.00 0.00 47 1025.3
20220123200116 58 315 4.3 5.2 0.00 0.00 0.00 45 1025.3
20220123195116 58 315 2.6 3.5 0.00 0.00 0.00 47 1025.3
20220123194116 57 315 3.5 5.2 0.00 0.00 0.00 48 1025.5
20220123193115 57 293 2.6 3.5 0.00 0.00 0.00 51 1025.5
20220123192117 57 338 4.3 5.2 0.00 0.00 0.00 51 1025.6
20220123191115 56 315 3.5 5.2 0.00 0.00 0.00 51 1025.6
20220123190116 56 315 3.5 5.2 0.00 0.00 0.00 52 1025.8
20220123185116 56 315 2.6 3.5 0.00 0.00 0.00 53 1025.8
20220123184115 56 315 3.5 5.2 0.00 0.00 0.00 54 1025.9
20220123183115 55 338 2.6 3.5 0.00 0.00 0.00 54 1025.8
20220123182115 55 23 1.7 2.6 0.00 0.00 0.00 55 1025.7
20220123181115 55 45 0.9 1.7 0.00 0.00 0.00 56 1025.6
20220123180115 54 0.0 0.0 0.00 0.00 0.00 58 1025.5
20220123175116 53 113 0.9 1.7 0.00 0.00 0.00 58 1025.4
20220123174116 52 45 0.9 1.7 0.00 0.00 0.00 60 1025.4
20220123173115 52 158 0.9 0.9 0.00 0.00 0.00 61 1025.3
20220123172115 50 0.0 0.0 0.00 0.00 0.00 64 1025.3
20220123171116 48 158 0.9 1.7 0.00 0.00 0.00 65 1025.3
20220123170115 46 68 0.9 1.7 0.00 0.00 0.00 68 1025.4
20220123165116 46 45 1.7 2.6 0.00 0.00 0.00 70 1025.4
20220123164116 45 90 0.9 1.7 0.00 0.00 0.00 72 1025.3
20220123163115 44 68 0.9 1.7 0.00 0.00 0.00 73 1025.3
20220123162116 44 113 0.9 0.9 0.00 0.00 0.00 73 1025.1
20220123161115 43 180 0.9 0.9 0.00 0.00 0.00 77 1025.1
20220123160115 41 0.0 0.9 0.00 0.00 0.00 80 1025.1
20220123155115 39 158 0.9 1.7 0.00 0.00 0.00 82 1025.1
20220123154115 38 0.0 0.0 0.00 0.00 0.00 84 1024.9
20220123153115 37 0.0 0.0 0.00 0.00 0.00 84 1024.9
20220123152116 38 0.0 0.0 0.00 0.00 0.00 85 1024.9
20220123151115 37 0.0 0.0 0.00 0.00 0.00 85 1024.8
20220123150115 37 0.0 0.0 0.00 0.00 0.00 84 1024.7
20220123145116 37 0.0 0.0 0.00 0.00 0.00 84 1024.5
20220123144232 37 0.0 0.0 0.00 0.00 0.00 84 1024.6
20220123143515 38 0.0 0.0 0.00 0.00 0.00 84 1024.5
20220123142515 37 0.0 0.0 0.00 0.00 0.00 85 1024.5
20220123141515 37 0.0 0.0 0.00 0.00 0.00 84 1024.4
20220123140515 38 0.0 0.0 0.00 0.00 0.00 84 1024.4
20220123135515 38 0.0 0.0 0.00 0.00 0.00 83 1024.4
20220123134515 38 0.0 0.0 0.00 0.00 0.00 83 1024.4
20220123133517 38 0.0 0.0 0.00 0.00 0.00 83 1024.2
20220123132516 38 0.0 0.0 0.00 0.00 0.00 82 1024.0
20220123131515 38 0.0 0.0 0.00 0.00 0.00 82 1023.8
20220123130515 39 0.0 0.0 0.00 0.00 0.00 82 1023.8
20220123125515 39 0.0 0.0 0.00 0.00 0.00 82 1023.7
20220123124515 39 0.0 0.0 0.00 0.00 0.00 82 1023.7
20220123123515 39 0.0 0.0 0.00 0.00 0.00 82 1023.7
20220123122515 39 158 0.9 1.7 0.00 0.00 0.00 83 1023.6
20220123121515 39 0.0 0.0 0.00 0.00 0.00 82 1023.5
20220123120515 39 0.0 0.0 0.00 0.00 0.00 82 1023.5
20220123115515 39 0.0 0.0 0.00 0.00 0.00 81 1023.6
20220123114515 40 0.0 0.0 0.00 0.00 0.00 80 1023.5
20220123113515 40 0.0 0.0 0.00 0.00 0.00 82 1023.4
20220123112516 39 0.0 0.0 0.00 0.00 0.00 81 1023.3
20220123111515 40 0.0 0.0 0.00 0.00 0.00 80 1023.2
20220123110515 40 0.0 0.0 0.00 0.00 0.00 80 1023.3
20220123105515 40 225 0.9 0.9 0.00 0.00 0.00 81 1023.4
20220123104515 40 0.0 0.0 0.00 0.00 0.00 79 1023.3
20220123103515 41 0.0 0.0 0.00 0.00 0.00 80 1023.2
20220123102515 41 203 0.9 0.9 0.00 0.00 0.00 79 1023.1
20220123101615 41 203 0.9 0.9 0.00 0.00 0.00 79 1023.0
20220123101319 41 203 0.9 1.7 0.00 0.00 0.00 79 1023.0
20220123100317 41 225 0.9 0.9 0.00 0.00 0.00 78 1022.8
20220123095315 41 0.0 0.0 0.00 0.00 0.00 77 1022.6